Time;durP1;ratioP1;P1;durP2;ratioP2;P2;SDS_P1;SDS_P2;PMS_P1;PMS_P2;Temp;Humidity;BMP_temperature;BMP_pressure;BME280_temperature;BME280_humidity;BME280_pressure;Samples;Min_cycle;Max_cycle;Signal;HPM_P1;HPM_P2
2023/02/25 00:02:13;;;;;;;196.63;181.90;;;;;;;1.30;83.23;99926.34;4939242;28;20094;-72
2023/02/25 00:04:40;;;;;;;196.13;181.27;;;;;;;1.41;81.45;99917.63;4924680;29;20135;-74
2023/02/25 00:07:07;;;;;;;189.93;175.57;;;;;;;1.21;83.02;99920.59;4923258;28;20052;-72
2023/02/25 00:09:33;;;;;;;194.65;180.00;;;;;;;1.05;83.37;99913.38;4919303;29;20118;-72
2023/02/25 00:11:59;;;;;;;190.63;176.20;;;;;;;0.91;84.77;99922.50;4926981;29;20356;-73
2023/02/25 00:14:24;;;;;;;193.82;179.27;;;;;;;0.76;84.98;99920.31;4925445;29;20040;-73
2023/02/25 00:16:50;;;;;;;193.43;178.63;;;;;;;0.68;84.97;99931.97;4922755;29;20046;-72
2023/02/25 00:19:15;;;;;;;194.32;179.32;;;;;;;0.90;83.72;99942.00;4922835;29;20051;-73
2023/02/25 00:21:43;;;;;;;200.55;185.15;;;;;;;0.89;84.07;99925.38;4921142;29;20040;-71
2023/02/25 00:24:10;;;;;;;193.52;178.57;;;;;;;1.04;83.16;99944.22;4935255;28;20043;-71
2023/02/25 00:26:36;;;;;;;197.73;182.85;;;;;;;1.10;83.79;99947.78;4917322;29;20051;-71
2023/02/25 00:29:01;;;;;;;197.98;183.15;;;;;;;1.09;84.57;99941.69;4919773;29;20042;-71
2023/02/25 00:31:28;;;;;;;194.63;179.73;;;;;;;1.55;81.50;99945.38;4921209;29;20040;-73
2023/02/25 00:33:53;;;;;;;195.98;180.73;;;;;;;1.55;80.58;99960.41;4922463;29;20158;-71
2023/02/25 00:36:24;;;;;;;193.15;178.32;;;;;;;1.52;81.79;99960.91;4915172;29;20039;-74
2023/02/25 00:38:54;;;;;;;194.32;179.38;;;;;;;1.56;82.27;99962.84;4934853;28;20657;-72
2023/02/25 00:41:23;;;;;;;196.77;181.45;;;;;;;1.65;82.37;99963.31;4935604;28;20044;-72
2023/02/25 00:43:53;;;;;;;194.40;179.65;;;;;;;1.76;81.32;99969.59;4936425;29;20044;-73
2023/02/25 00:46:19;;;;;;;196.85;182.25;;;;;;;1.98;79.97;99964.56;4904806;29;20764;-72
2023/02/25 00:48:45;;;;;;;193.48;178.52;;;;;;;1.95;79.68;99975.56;4902587;29;20062;-72
2023/02/25 00:51:14;;;;;;;193.23;178.52;;;;;;;1.93;79.27;99978.44;4921123;29;20126;-71
2023/02/25 00:53:41;;;;;;;194.57;179.50;;;;;;;1.91;81.15;99972.59;4920619;29;20035;-73
2023/02/25 00:56:09;;;;;;;193.50;178.45;;;;;;;1.74;80.79;99969.03;4921197;29;20102;-73
2023/02/25 00:58:37;;;;;;;196.27;180.93;;;;;;;1.89;80.83;99974.66;4918052;29;20028;-73
2023/02/25 01:01:05;;;;;;;192.07;177.38;;;;;;;2.00;79.15;99973.84;4919650;29;20061;-71
2023/02/25 01:03:32;;;;;;;195.98;181.07;;;;;;;2.09;78.39;99983.00;4917993;29;20043;-72
2023/02/25 01:05:57;;;;;;;192.00;177.32;;;;;;;2.11;76.95;99988.06;4936271;28;20128;-71
2023/02/25 01:08:24;;;;;;;193.68;179.13;;;;;;;2.19;78.11;99993.00;4932291;28;20039;-71
2023/02/25 01:10:52;;;;;;;192.13;177.63;;;;;;;2.18;77.25;99988.75;4918603;29;20187;-74
2023/02/25 01:13:17;;;;;;;195.00;180.23;;;;;;;2.16;76.37;99993.44;4934569;28;20035;-74
2023/02/25 01:15:43;;;;;;;194.55;180.15;;;;;;;2.22;76.51;99986.44;4917159;29;20450;-73
2023/02/25 01:18:09;;;;;;;191.18;176.93;;;;;;;2.13;75.76;99997.38;4920798;29;20055;-74
2023/02/25 01:20:39;;;;;;;194.90;180.13;;;;;;;2.17;75.86;100010.94;4918594;29;20063;-73
2023/02/25 01:23:05;;;;;;;194.73;179.45;;;;;;;2.18;76.65;100002.75;4920814;29;20836;-74
2023/02/25 01:25:37;;;;;;;195.10;180.55;;;;;;;2.03;78.60;100010.38;4923849;29;20043;-74
2023/02/25 01:28:05;;;;;;;193.93;179.35;;;;;;;2.09;76.12;100011.25;4910699;29;20070;-71
2023/02/25 01:30:36;;;;;;;199.52;184.63;;;;;;;2.10;75.98;100010.22;4924589;29;20051;-73
2023/02/25 01:33:02;;;;;;;194.40;179.85;;;;;;;2.09;75.05;100013.91;4922547;29;20120;-71
2023/02/25 01:35:27;;;;;;;194.68;179.88;;;;;;;1.89;78.07;100022.97;4938343;28;20052;-73
2023/02/25 01:37:54;;;;;;;194.13;179.43;;;;;;;2.06;75.25;100014.38;4897597;29;20039;-73
2023/02/25 01:40:19;;;;;;;196.27;181.18;;;;;;;2.07;75.09;100021.25;4923195;29;20039;-72
2023/02/25 01:42:46;;;;;;;192.82;178.38;;;;;;;1.90;76.22;100027.25;4943110;28;20035;-71
2023/02/25 01:45:21;;;;;;;191.00;176.75;;;;;;;2.00;77.11;100017.94;4912033;29;20032;-71
2023/02/25 01:47:52;;;;;;;193.05;178.25;;;;;;;1.92;77.14;100030.44;4926870;29;20074;-72
2023/02/25 01:50:21;;;;;;;192.02;177.45;;;;;;;1.84;78.10;100037.94;4943593;28;20039;-72
2023/02/25 01:52:49;;;;;;;196.38;181.68;;;;;;;1.94;78.08;100034.69;4925990;29;20081;-72
2023/02/25 01:55:14;;;;;;;195.48;180.85;;;;;;;1.86;78.59;100036.66;4941305;28;20042;-72
2023/02/25 01:57:40;;;;;;;197.18;182.82;;;;;;;2.02;76.11;100035.16;4942447;28;20039;-72
2023/02/25 02:00:16;;;;;;;190.98;176.70;;;;;;;1.90;78.39;100042.28;4926736;29;20508;-72
2023/02/25 02:02:48;;;;;;;201.40;186.82;;;;;;;2.12;74.29;100051.25;4925626;29;20051;-72
2023/02/25 02:05:14;;;;;;;193.65;179.30;;;;;;;2.06;74.74;100057.44;4943213;28;20082;-72
2023/02/25 02:07:43;;;;;;;192.70;178.38;;;;;;;1.98;75.84;100055.16;4939646;28;20047;-73
2023/02/25 02:10:09;;;;;;;196.57;182.07;;;;;;;1.91;77.11;100057.09;4922967;29;20059;-73
2023/02/25 02:12:40;;;;;;;196.73;181.73;;;;;;;1.93;78.37;100068.22;4923804;29;20476;-72
2023/02/25 02:15:09;;;;;;;191.95;177.55;;;;;;;2.07;75.86;100058.25;4922256;29;20036;-73
2023/02/25 02:17:54;;;;;;;200.75;186.15;;;;;;;2.00;76.47;100068.13;4920650;29;20524;-73
2023/02/25 02:20:25;;;;;;;198.98;184.23;;;;;;;2.01;76.06;100065.25;4937525;28;20062;-72
2023/02/25 02:23:15;;;;;;;194.27;179.77;;;;;;;2.06;74.50;100068.00;4920406;29;20063;-73
2023/02/25 02:26:10;;;;;;;193.82;179.40;;;;;;;2.01;75.06;100075.00;4921644;29;20479;-74
2023/02/25 02:28:55;;;;;;;194.00;179.40;;;;;;;1.94;76.61;100084.88;4923660;29;20047;-73
2023/02/25 02:31:33;;;;;;;192.55;177.95;;;;;;;2.07;75.33;100074.88;4922503;29;20028;-74
2023/02/25 02:34:15;;;;;;;192.63;178.35;;;;;;;2.00;75.44;100094.53;4938766;28;20111;-72
2023/02/25 02:37:02;;;;;;;193.88;179.43;;;;;;;2.00;76.71;100089.25;4902354;29;20047;-71
2023/02/25 02:39:52;;;;;;;193.13;178.82;;;;;;;2.04;77.54;100093.03;4915383;29;20043;-73
2023/02/25 02:42:30;;;;;;;194.02;179.73;;;;;;;1.79;78.30;100094.03;4920149;29;20121;-73
2023/02/25 02:45:21;;;;;;;192.95;178.43;;;;;;;1.81;77.58;100101.72;4921761;29;20094;-71
2023/02/25 02:48:33;;;;;;;194.25;179.93;;;;;;;1.96;76.03;100109.22;4921223;29;20060;-73
2023/02/25 02:51:01;;;;;;;192.20;177.90;;;;;;;1.95;76.67;100104.97;4868166;29;1053756;-73
2023/02/25 02:53:30;;;;;;;192.90;178.18;;;;;;;1.85;77.46;100110.81;4923068;29;20051;-72
2023/02/25 02:56:00;;;;;;;192.30;177.80;;;;;;;1.99;76.61;100098.19;4909688;29;20046;-72
2023/02/25 02:58:30;;;;;;;199.32;184.75;;;;;;;1.95;77.05;100112.88;4939874;28;20038;-73
2023/02/25 03:01:04;;;;;;;196.80;182.02;;;;;;;2.04;74.42;100127.38;4924962;29;20066;-73
2023/02/25 03:03:37;;;;;;;193.05;178.40;;;;;;;1.98;73.39;100117.72;4926045;29;20044;-72
2023/02/25 03:06:10;;;;;;;191.35;177.05;;;;;;;1.87;74.95;100132.50;4939994;28;20043;-72
2023/02/25 03:08:43;;;;;;;191.80;177.68;;;;;;;1.91;75.49;100136.31;4926733;29;20760;-73
2023/02/25 03:11:10;;;;;;;193.90;179.48;;;;;;;1.94;74.74;100142.97;4909788;29;20470;-73
2023/02/25 03:13:36;;;;;;;192.38;178.05;;;;;;;1.99;73.11;100143.91;4944375;29;20494;-71
2023/02/25 03:16:06;;;;;;;191.85;177.50;;;;;;;2.05;73.86;100150.13;4929353;29;20297;-73
2023/02/25 03:18:55;;;;;;;195.63;180.98;;;;;;;1.91;72.82;100155.59;4926423;29;20573;-73
2023/02/25 03:21:30;;;;;;;193.30;179.00;;;;;;;1.89;74.62;100160.28;4946203;29;21216;-72
2023/02/25 03:23:58;;;;;;;192.00;177.70;;;;;;;1.86;74.47;100166.03;4943876;28;20162;-73
2023/02/25 03:26:29;;;;;;;191.00;176.55;;;;;;;1.84;74.96;100165.47;4913989;29;20114;-73
2023/02/25 03:28:59;;;;;;;193.07;178.60;;;;;;;1.68;76.06;100160.81;4931245;29;20035;-72
2023/02/25 03:31:28;;;;;;;195.00;180.57;;;;;;;1.69;75.61;100170.34;4939988;28;20094;-72
2023/02/25 03:34:18;;;;;;;190.60;176.60;;;;;;;1.52;77.01;100166.72;4925970;29;20126;-73
2023/02/25 03:37:01;;;;;;;193.95;179.40;;;;;;;1.66;76.38;100167.34;4926434;29;20039;-72
2023/02/25 03:39:33;;;;;;;191.80;177.60;;;;;;;1.61;75.21;100174.09;4927513;29;20047;-72
2023/02/25 03:42:02;;;;;;;193.90;179.10;;;;;;;1.60;75.01;100185.69;4923300;29;20436;-72
2023/02/25 03:44:33;;;;;;;191.95;177.50;;;;;;;1.49;77.79;100183.00;4944642;28;20039;-73
2023/02/25 03:47:02;;;;;;;196.00;181.32;;;;;;;1.45;78.36;100192.41;4926940;29;20093;-73
2023/02/25 03:49:52;;;;;;;193.20;178.80;;;;;;;1.36;79.34;100203.28;4911607;29;20046;-72
2023/02/25 03:52:22;;;;;;;192.45;178.27;;;;;;;1.58;78.49;100215.97;4910839;29;20046;-72
2023/02/25 03:54:52;;;;;;;193.20;178.93;;;;;;;1.48;75.56;100208.59;4927760;29;20043;-72
2023/02/25 03:57:19;;;;;;;190.20;176.00;;;;;;;1.49;75.94;100212.03;4926534;29;20035;-72
2023/02/25 03:59:45;;;;;;;194.55;179.95;;;;;;;1.29;76.96;100215.75;4925304;29;20469;-72
2023/02/25 04:02:12;;;;;;;192.98;178.63;;;;;;;1.20;78.20;100226.78;4941961;28;20118;-72
2023/02/25 04:04:38;;;;;;;193.73;179.25;;;;;;;1.13;78.20;100232.13;4906934;29;20108;-73
2023/02/25 04:07:04;;;;;;;198.10;183.32;;;;;;;1.16;78.53;100234.34;4914040;29;20067;-72
2023/02/25 04:09:30;;;;;;;198.00;183.60;;;;;;;1.27;77.19;100227.53;4926371;29;20825;-72
2023/02/25 04:11:56;;;;;;;195.43;180.93;;;;;;;1.06;78.24;100241.94;4927807;29;20047;-73
2023/02/25 04:14:23;;;;;;;192.60;178.23;;;;;;;1.13;77.79;100234.78;4944735;28;20051;-73
2023/02/25 04:16:48;;;;;;;192.18;177.27;;;;;;;1.24;74.61;100244.59;4911472;29;20043;-72
2023/02/25 04:19:14;;;;;;;191.95;177.55;;;;;;;1.16;76.96;100252.81;4930794;29;20412;-72
2023/02/25 04:21:41;;;;;;;191.85;177.50;;;;;;;1.15;77.36;100251.19;4925979;29;20642;-73
2023/02/25 04:24:07;;;;;;;192.93;178.52;;;;;;;1.16;75.63;100258.09;4928922;29;20152;-72
2023/02/25 04:26:34;;;;;;;192.75;178.20;;;;;;;1.17;76.14;100256.25;4925974;29;20062;-71
2023/02/25 04:29:00;;;;;;;190.15;175.63;;;;;;;1.11;77.96;100262.41;4927746;29;20042;-71
2023/02/25 04:31:25;;;;;;;191.05;176.80;;;;;;;1.21;75.51;100260.84;4912000;29;20044;-71
2023/02/25 04:33:51;;;;;;;193.25;178.88;;;;;;;1.13;78.16;100255.88;4912403;29;20071;-71
2023/02/25 04:36:22;;;;;;;191.43;177.10;;;;;;;1.01;77.50;100262.91;4928198;29;20668;-71
2023/02/25 04:38:48;;;;;;;193.07;178.48;;;;;;;1.11;77.92;100257.94;4943771;28;20090;-71
2023/02/25 04:41:13;;;;;;;195.07;180.50;;;;;;;1.14;77.69;100257.47;4936998;29;20044;-73
2023/02/25 04:43:39;;;;;;;196.32;181.48;;;;;;;1.03;76.95;100263.50;4907902;29;20094;-72
2023/02/25 04:46:05;;;;;;;190.55;176.25;;;;;;;0.99;77.17;100263.13;4925289;29;20043;-73
2023/02/25 04:48:30;;;;;;;192.43;177.65;;;;;;;1.15;76.88;100272.28;4927228;29;20039;-73
2023/02/25 04:51:00;;;;;;;192.25;177.40;;;;;;;0.99;77.76;100263.13;4925654;29;20043;-73
2023/02/25 04:53:26;;;;;;;197.13;182.35;;;;;;;1.03;78.64;100263.50;4925159;29;20529;-72
2023/02/25 04:55:52;;;;;;;195.57;180.85;;;;;;;1.09;76.53;100258.16;4924571;29;20221;-72
2023/02/25 04:58:18;;;;;;;190.60;176.30;;;;;;;1.00;77.25;100263.91;4926282;29;20038;-72
2023/02/25 05:00:47;;;;;;;194.05;179.50;;;;;;;1.11;77.49;100271.13;4924546;29;20500;-72
2023/02/25 05:03:14;;;;;;;195.23;180.50;;;;;;;1.11;76.58;100273.75;4940457;29;20028;-73
2023/02/25 05:05:40;;;;;;;193.88;178.93;;;;;;;1.02;78.43;100267.16;4939344;28;20038;-73
2023/02/25 05:08:06;;;;;;;195.45;180.95;;;;;;;1.01;79.18;100268.16;4924518;29;20040;-72
2023/02/25 05:10:32;;;;;;;189.95;175.40;;;;;;;1.02;78.79;100265.34;4926194;29;20042;-72
2023/02/25 05:12:58;;;;;;;190.25;175.85;;;;;;;0.99;78.40;100278.13;4941671;29;20036;-72
2023/02/25 05:15:24;;;;;;;188.13;174.02;;;;;;;1.12;76.36;100266.66;4925361;29;20043;-72
2023/02/25 05:17:50;;;;;;;190.23;176.02;;;;;;;1.14;77.17;100270.66;4909397;29;20079;-71
2023/02/25 05:20:15;;;;;;;190.07;175.85;;;;;;;1.09;77.98;100279.25;4923232;29;20095;-71
2023/02/25 05:22:41;;;;;;;191.02;176.88;;;;;;;1.18;77.54;100271.06;4924537;29;20039;-73
2023/02/25 05:25:10;;;;;;;192.25;177.63;;;;;;;1.23;77.20;100282.56;4925621;29;20201;-72
2023/02/25 05:27:36;;;;;;;191.05;176.75;;;;;;;1.11;78.38;100283.50;4937552;29;20195;-71
2023/02/25 05:30:02;;;;;;;190.50;175.98;;;;;;;1.08;77.71;100290.00;4924688;29;20042;-71
2023/02/25 05:32:30;;;;;;;188.57;174.18;;;;;;;1.03;78.90;100289.88;4937965;28;20063;-71
2023/02/25 05:34:56;;;;;;;191.23;176.40;;;;;;;1.17;77.89;100280.81;4940225;28;20040;-73
2023/02/25 05:37:21;;;;;;;193.43;178.93;;;;;;;1.08;78.23;100287.38;4923455;29;20039;-72
2023/02/25 05:39:47;;;;;;;189.77;175.57;;;;;;;1.17;76.89;100288.72;4924056;29;20032;-71
2023/02/25 05:42:13;;;;;;;189.02;174.93;;;;;;;1.25;76.98;100298.16;4922087;29;20039;-73
2023/02/25 05:44:39;;;;;;;190.30;176.07;;;;;;;1.15;77.89;100298.66;4924163;29;20047;-71
2023/02/25 05:47:06;;;;;;;189.20;174.90;;;;;;;1.17;77.78;100304.53;4920521;29;20841;-73
2023/02/25 05:49:32;;;;;;;192.77;178.38;;;;;;;1.14;77.52;100302.31;4924255;29;20090;-72
2023/02/25 05:51:58;;;;;;;189.20;175.00;;;;;;;1.12;77.83;100299.09;4906341;29;20047;-72
2023/02/25 05:54:24;;;;;;;189.73;175.55;;;;;;;1.17;77.16;100307.19;4928296;29;20044;-71
2023/02/25 05:56:51;;;;;;;191.35;177.27;;;;;;;1.12;78.05;100324.66;4924331;29;20366;-72
2023/02/25 05:59:17;;;;;;;190.25;175.95;;;;;;;1.09;78.70;100328.56;4925503;29;20087;-72
2023/02/25 06:01:43;;;;;;;192.02;177.63;;;;;;;1.13;78.06;100327.09;4924406;29;20058;-71
2023/02/25 06:04:09;;;;;;;193.63;179.13;;;;;;;1.20;78.01;100327.81;4923103;29;20036;-72
2023/02/25 06:06:36;;;;;;;193.27;178.80;;;;;;;1.23;76.54;100337.97;4922571;28;20071;-72
2023/02/25 06:09:04;;;;;;;193.40;178.80;;;;;;;1.40;75.73;100338.19;4924845;29;20035;-72
2023/02/25 06:11:30;;;;;;;189.98;175.52;;;;;;;1.39;75.39;100341.03;4926366;29;20044;-72
2023/02/25 06:13:57;;;;;;;191.50;177.00;;;;;;;1.33;76.09;100348.00;4928551;29;20039;-73
2023/02/25 06:16:30;;;;;;;196.63;182.23;;;;;;;1.26;76.11;100347.25;4928848;29;20888;-72
2023/02/25 06:19:00;;;;;;;196.52;181.82;;;;;;;1.19;77.68;100352.59;4944137;28;20157;-71
2023/02/25 06:21:25;;;;;;;191.55;177.13;;;;;;;1.19;77.05;100362.34;4926316;29;20573;-72
2023/02/25 06:23:51;;;;;;;189.95;175.43;;;;;;;1.27;75.63;100369.97;4911527;29;20046;-73
2023/02/25 06:26:18;;;;;;;193.35;178.85;;;;;;;1.27;77.06;100368.13;4942888;29;20035;-73
2023/02/25 06:28:44;;;;;;;193.13;178.32;;;;;;;1.12;77.42;100383.50;4928125;29;20042;-72
2023/02/25 06:31:13;;;;;;;190.07;175.80;;;;;;;1.21;77.46;100387.47;4909349;29;20032;-72
2023/02/25 06:33:39;;;;;;;190.43;176.13;;;;;;;1.25;77.00;100378.09;4928163;29;20107;-72
2023/02/25 06:36:06;;;;;;;193.95;179.25;;;;;;;1.27;77.69;100391.88;4926708;29;20035;-72
2023/02/25 06:38:33;;;;;;;189.30;175.20;;;;;;;1.21;77.14;100392.75;4927994;29;20039;-72
2023/02/25 06:41:03;;;;;;;189.90;175.55;;;;;;;1.44;74.79;100399.25;4945000;28;20039;-72
2023/02/25 06:43:29;;;;;;;192.05;177.50;;;;;;;1.44;75.27;100399.25;4930080;29;20027;-72
2023/02/25 06:45:54;;;;;;;188.82;174.63;;;;;;;1.43;76.33;100405.56;4943606;28;20035;-72
2023/02/25 06:48:20;;;;;;;191.02;176.52;;;;;;;1.35;75.59;100404.81;4946702;28;20078;-70
2023/02/25 06:50:46;;;;;;;191.68;177.52;;;;;;;1.34;76.04;100411.09;4943887;28;20118;-71
2023/02/25 06:53:12;;;;;;;191.68;177.30;;;;;;;1.40;77.11;100413.91;4943920;28;20110;-72
2023/02/25 06:55:38;;;;;;;194.88;180.50;;;;;;;1.51;75.53;100418.47;4911194;29;20182;-72
2023/02/25 06:58:04;;;;;;;192.57;177.98;;;;;;;1.47;76.49;100422.56;4928449;29;20107;-73
2023/02/25 07:00:29;;;;;;;190.40;176.32;;;;;;;1.41;76.13;100439.25;4913285;29;20194;-72
2023/02/25 07:02:55;;;;;;;191.25;176.95;;;;;;;1.45;76.31;100445.72;4930373;29;20039;-73
2023/02/25 07:05:20;;;;;;;191.02;176.68;;;;;;;1.49;76.29;100447.72;4914301;29;20549;-72
2023/02/25 07:07:46;;;;;;;192.13;177.35;;;;;;;1.35;77.08;100462.88;4930522;29;20040;-72
2023/02/25 07:10:11;;;;;;;194.75;180.35;;;;;;;0.98;79.78;100455.84;4932378;29;20054;-72
2023/02/25 07:12:37;;;;;;;191.40;177.05;;;;;;;0.72;80.93;100460.25;4924925;29;20040;-72
2023/02/25 07:15:03;;;;;;;198.82;183.90;;;;;;;0.60;81.98;100469.03;4945088;28;20066;-72
2023/02/25 07:17:29;;;;;;;193.45;178.55;;;;;;;0.58;82.48;100477.16;4928225;29;20054;-75
2023/02/25 07:19:55;;;;;;;191.55;176.98;;;;;;;0.33;83.93;100484.13;4946541;28;20473;-73
2023/02/25 07:22:20;;;;;;;194.68;180.27;;;;;;;0.30;84.61;100485.38;4913765;29;20154;-73
2023/02/25 07:24:46;;;;;;;194.38;179.55;;;;;;;0.16;85.06;100495.13;4927288;29;20051;-71
2023/02/25 07:27:12;;;;;;;193.93;178.70;;;;;;;0.03;86.14;100503.06;4925110;29;20039;-73
2023/02/25 07:29:38;;;;;;;198.93;183.93;;;;;;;-0.04;85.74;100499.66;4926839;29;20039;-74
2023/02/25 07:32:04;;;;;;;204.43;189.38;;;;;;;-0.15;85.75;100502.91;4938148;28;20405;-72
2023/02/25 07:34:30;;;;;;;205.32;190.25;;;;;;;-0.19;86.64;100497.25;4930498;29;20099;-72
2023/02/25 07:36:56;;;;;;;195.65;180.32;;;;;;;-0.06;86.59;100501.69;4906591;29;20035;-72
2023/02/25 07:39:21;;;;;;;200.50;185.80;;;;;;;-0.05;86.21;100498.03;4941283;28;20453;-72
2023/02/25 07:41:47;;;;;;;205.40;190.25;;;;;;;0.22;85.16;100491.69;4911288;29;20040;-72
2023/02/25 07:44:13;;;;;;;193.88;179.35;;;;;;;0.47;82.84;100506.78;4929753;29;20039;-72
2023/02/25 07:46:40;;;;;;;198.48;182.50;;;;;;;0.43;83.96;100518.75;4928422;29;20117;-73
2023/02/25 07:49:06;;;;;;;193.93;178.95;;;;;;;0.58;83.43;100513.22;4928340;29;20036;-73
2023/02/25 07:51:32;;;;;;;205.25;190.10;;;;;;;0.75;81.53;100523.09;4931546;28;20067;-74
2023/02/25 07:53:59;;;;;;;195.40;179.85;;;;;;;0.65;81.07;100517.44;4942324;28;20048;-73
2023/02/25 07:56:28;;;;;;;201.57;186.63;;;;;;;0.80;79.75;100525.88;4923041;29;20489;-74
2023/02/25 07:58:53;;;;;;;194.60;179.57;;;;;;;0.77;80.65;100530.78;4925548;29;20039;-73
2023/02/25 08:01:23;;;;;;;204.77;189.23;;;;;;;0.89;79.45;100531.75;4925471;29;20051;-73
2023/02/25 08:03:54;;;;;;;202.82;187.60;;;;;;;0.92;79.93;100536.59;4942959;28;20044;-72
2023/02/25 08:06:22;;;;;;;193.48;178.50;;;;;;;1.16;78.82;100532.41;4911799;29;20046;-73
2023/02/25 08:08:50;;;;;;;200.55;185.75;;;;;;;1.34;76.00;100536.94;4928507;29;20051;-72
2023/02/25 08:11:18;;;;;;;191.98;177.48;;;;;;;1.31;77.95;100546.09;4927528;29;20059;-74
2023/02/25 08:13:44;;;;;;;193.35;178.68;;;;;;;1.34;77.32;100548.28;4942361;28;20043;-73
2023/02/25 08:16:14;;;;;;;198.25;183.43;;;;;;;1.73;74.95;100556.94;4927822;29;20035;-73
2023/02/25 08:18:43;;;;;;;196.57;181.90;;;;;;;1.63;75.75;100554.00;4942945;28;20397;-73
2023/02/25 08:21:10;;;;;;;194.30;179.57;;;;;;;1.51;76.14;100556.53;4938684;28;20035;-71
2023/02/25 08:23:36;;;;;;;197.32;182.43;;;;;;;1.40;76.57;100566.94;4924563;29;20035;-72
2023/02/25 08:26:03;;;;;;;194.40;179.70;;;;;;;1.25;77.01;100570.69;4926240;29;20744;-73
2023/02/25 08:28:31;;;;;;;194.70;180.02;;;;;;;1.32;75.53;100573.28;4925878;29;20027;-73
2023/02/25 08:30:58;;;;;;;195.60;181.23;;;;;;;1.11;76.11;100581.53;4926996;29;20287;-73
2023/02/25 08:33:25;;;;;;;192.60;177.93;;;;;;;0.91;77.72;100592.16;4925999;29;20039;-72
2023/02/25 08:35:51;;;;;;;194.38;179.68;;;;;;;0.93;78.88;100601.47;4927524;29;20058;-73
2023/02/25 08:38:17;;;;;;;197.65;182.80;;;;;;;0.75;79.79;100599.53;4927283;29;20044;-73
2023/02/25 08:40:43;;;;;;;193.88;179.05;;;;;;;0.72;81.44;100605.22;4929640;29;20130;-73
2023/02/25 08:43:09;;;;;;;200.98;186.02;;;;;;;0.72;82.15;100613.13;4925570;29;20091;-72
2023/02/25 08:45:40;;;;;;;193.32;178.20;;;;;;;0.62;82.57;100609.31;4929993;29;20063;-73
2023/02/25 08:48:06;;;;;;;200.10;184.50;;;;;;;0.72;82.46;100605.22;4928167;29;20054;-72
2023/02/25 08:50:32;;;;;;;193.07;178.35;;;;;;;0.71;82.73;100608.06;4909892;29;20142;-72
2023/02/25 08:52:57;;;;;;;194.70;179.27;;;;;;;0.91;82.85;100623.81;4924791;29;20047;-74
2023/02/25 08:55:24;;;;;;;196.38;181.57;;;;;;;0.89;82.59;100639.84;4924039;29;20708;-72
2023/02/25 08:57:50;;;;;;;194.88;180.38;;;;;;;1.03;82.96;100635.34;4925612;29;20035;-75
2023/02/25 09:00:16;;;;;;;195.63;181.25;;;;;;;0.78;83.17;100636.03;4925860;29;20620;-75
2023/02/25 09:02:43;;;;;;;195.77;180.95;;;;;;;0.81;82.73;100640.06;4909550;29;20083;-74
2023/02/25 09:05:09;;;;;;;192.90;178.40;;;;;;;0.84;83.42;100638.84;4942450;28;20044;-74
2023/02/25 09:07:35;;;;;;;193.55;178.40;;;;;;;0.87;82.49;100643.69;4926291;29;20570;-73
2023/02/25 09:10:05;;;;;;;192.48;178.15;;;;;;;1.26;78.35;100643.53;4940123;29;20643;-72
2023/02/25 09:12:32;;;;;;;196.35;181.68;;;;;;;1.11;80.00;100640.38;4921878;29;20968;-73
2023/02/25 09:14:58;;;;;;;193.43;178.52;;;;;;;1.39;78.96;100653.22;4925401;29;20031;-73
2023/02/25 09:17:23;;;;;;;195.02;180.50;;;;;;;1.47;79.05;100660.06;4943138;28;20094;-73
2023/02/25 09:19:49;;;;;;;194.77;179.80;;;;;;;1.33;78.86;100654.88;4942829;28;20513;-73
2023/02/25 09:22:15;;;;;;;194.05;179.55;;;;;;;1.41;76.19;100666.19;4922450;29;20071;-73
2023/02/25 09:24:41;;;;;;;194.73;180.02;;;;;;;1.49;76.72;100664.13;4927458;29;20071;-70
2023/02/25 09:27:06;;;;;;;193.27;178.77;;;;;;;1.63;73.61;100680.72;4906808;29;20407;-73
2023/02/25 09:29:37;;;;;;;194.20;179.35;;;;;;;1.35;75.21;100678.41;4927048;29;20071;-72
2023/02/25 09:32:04;;;;;;;203.75;188.60;;;;;;;1.21;74.01;100693.47;4922977;29;20043;-71
2023/02/25 09:34:32;;;;;;;193.40;178.60;;;;;;;1.16;74.97;100695.13;4925949;29;20478;-71
2023/02/25 09:37:13;;;;;;;194.82;180.18;;;;;;;1.18;73.15;100695.72;4940576;28;20040;-71
2023/02/25 09:39:41;;;;;;;194.65;179.63;;;;;;;1.24;72.09;100698.34;4926926;29;20508;-73
2023/02/25 09:42:12;;;;;;;193.00;178.27;;;;;;;1.16;73.50;100714.41;4942213;28;20880;-71
2023/02/25 09:44:44;;;;;;;199.02;183.40;;;;;;;1.26;73.62;100717.41;4939742;28;20119;-72
2023/02/25 09:47:27;;;;;;;199.55;184.93;;;;;;;1.38;73.70;100719.41;4927329;29;20044;-74
2023/02/25 09:50:11;;;;;;;194.60;179.35;;;;;;;1.26;73.35;100712.13;4929436;29;21628;-72
2023/02/25 09:52:49;;;;;;;195.88;180.60;;;;;;;1.42;71.54;100725.88;4929724;29;20050;-72
2023/02/25 09:55:22;;;;;;;194.55;179.70;;;;;;;1.19;74.67;100731.63;4945097;28;20036;-73
2023/02/25 09:58:12;;;;;;;197.65;182.73;;;;;;;1.21;71.71;100740.16;4932570;29;20039;-73
2023/02/25 10:00:43;;;;;;;197.68;182.60;;;;;;;1.08;73.79;100738.34;4927464;29;20043;-73
2023/02/25 10:03:20;;;;;;;202.25;187.02;;;;;;;1.08;73.15;100746.25;4931004;29;20043;-72
2023/02/25 10:06:01;;;;;;;199.13;183.93;;;;;;;1.14;75.09;100761.28;4931617;29;20043;-74
2023/02/25 10:08:58;;;;;;;192.32;177.70;;;;;;;1.46;72.77;100756.09;4932149;29;20398;-72
2023/02/25 10:11:39;;;;;;;193.07;178.32;;;;;;;1.54;70.96;100755.88;4929821;29;20650;-72
2023/02/25 10:14:32;;;;;;;197.20;182.00;;;;;;;1.87;69.45;100761.00;4931437;29;20501;-74
2023/02/25 10:17:15;;;;;;;194.07;179.15;;;;;;;2.06;66.55;100769.81;4926552;29;20110;-72
2023/02/25 10:20:17;;;;;;;121.70;108.90;;;;;;;2.22;64.23;100779.06;4926429;29;20506;-73
2023/02/25 10:23:03;;;;;;;196.02;180.88;;;;;;;2.31;66.32;100775.97;4945157;28;20078;-73
2023/02/25 10:25:35;;;;;;;195.57;180.57;;;;;;;2.65;68.04;100781.81;4914246;29;20052;-74
2023/02/25 10:28:06;;;;;;;195.37;179.87;;;;;;;2.74;65.55;100780.50;4928628;29;20035;-73
2023/02/25 10:30:51;;;;;;;197.13;181.82;;;;;;;2.95;66.21;100792.53;4927601;29;20182;-74
2023/02/25 10:33:25;;;;;;;195.80;180.43;;;;;;;3.08;65.25;100799.53;4911284;29;20039;-71
2023/02/25 10:36:02;;;;;;;199.68;184.48;;;;;;;2.77;64.75;100806.50;4923464;29;20044;-74
2023/02/25 10:38:27;;;;;;;200.20;184.73;;;;;;;2.63;63.13;100802.34;4943730;29;20031;-73
2023/02/25 10:40:56;;;;;;;195.35;180.25;;;;;;;2.58;64.51;100810.16;4925941;29;20749;-74
2023/02/25 10:43:25;;;;;;;193.82;178.77;;;;;;;2.30;62.70;100818.44;4943858;29;20050;-74
2023/02/25 10:46:00;;;;;;;194.90;180.10;;;;;;;2.40;66.06;100834.66;4926000;29;20043;-72
2023/02/25 10:48:27;;;;;;;192.93;178.07;;;;;;;2.33;65.63;100839.97;4927874;29;20044;-73
2023/02/25 10:51:10;;;;;;;195.52;180.52;;;;;;;2.33;64.57;100850.56;4926882;29;20497;-75
2023/02/25 10:54:01;;;;;;;191.93;176.95;;;;;;;1.88;66.91;100853.19;4940627;28;20044;-72
2023/02/25 10:56:31;;;;;;;193.90;178.90;;;;;;;1.98;65.21;100858.06;4943464;28;20040;-71
2023/02/25 10:59:01;;;;;;;193.30;178.52;;;;;;;2.00;64.85;100850.72;4928084;29;20525;-73
2023/02/25 11:01:36;;;;;;;192.52;177.70;;;;;;;2.13;66.04;100849.84;4912775;29;20036;-72
2023/02/25 11:04:04;;;;;;;193.85;178.95;;;;;;;2.35;63.71;100851.16;4930360;29;20102;-72
2023/02/25 11:06:34;;;;;;;192.23;177.48;;;;;;;2.48;65.17;100852.91;4932209;29;20039;-73
2023/02/25 11:09:03;;;;;;;192.50;177.68;;;;;;;2.62;61.31;100858.91;4907398;29;20046;-73
2023/02/25 11:11:37;;;;;;;195.40;179.65;;;;;;;2.50;65.01;100865.91;4913198;29;20490;-74
2023/02/25 11:14:04;;;;;;;193.45;178.20;;;;;;;2.35;63.37;100868.84;4928832;29;20500;-71